createdAt,value
2023-01-18T00:01:15.968Z,11.11916431024083
2023-01-18T00:04:16.606Z,11.187888618886063
2023-01-18T00:07:16.448Z,11.15448988294811
2023-01-18T00:11:17.275Z,11.142286501730359
2023-01-18T00:14:17.232Z,11.047870923582014
2023-01-18T00:17:16.967Z,11.145497917681132
2023-01-18T00:21:16.159Z,11.07998505478172
2023-01-18T00:24:16.504Z,11.139075085893273
2023-01-18T00:27:16.491Z,11.089619296358524
2023-01-18T00:31:18.917Z,11.019610497530447
2023-01-18T00:34:16.658Z,11.037594403999174
2023-01-18T00:37:16.735Z,10.995203773025423
2023-01-18T00:41:16.416Z,11.047870923582014
2023-01-18T00:44:16.785Z,11.023464191473613
2023-01-18T00:47:17.224Z,11.012545392393168
2023-01-18T00:51:21.360Z,10.951528598195
2023-01-18T00:54:16.676Z,10.998415183769339
2023-01-18T00:57:16.420Z,10.92198363890966
2023-01-18T01:01:16.218Z,10.92069907568075
2023-01-18T01:31:17.470Z,10.778112670340125
2023-01-18T01:34:16.652Z,10.820503199868835
2023-01-18T01:37:16.437Z,10.78132407339881
2023-01-18T01:41:20.060Z,10.66892503398849
2023-01-18T01:44:50.825Z,10.771689864563815
2023-01-18T01:47:26.647Z,10.715169193340989
2023-01-18T01:51:19.256Z,10.656079438352027
2023-01-18T01:54:21.430Z,10.693973950711461
2023-01-18T01:57:20.753Z,10.693973950711461
2023-01-18T02:01:16.418Z,10.739575842503474
2023-01-18T02:04:17.025Z,10.694616230718385
2023-01-18T02:07:16.589Z,10.649014361527316
2023-01-18T02:11:16.416Z,10.671494153334061
2023-01-18T02:14:17.637Z,10.67277871303413
2023-01-18T02:17:29.346Z,10.699112190894175
2023-01-18T02:21:18.348Z,10.661859956163335
2023-01-18T02:24:42.515Z,10.711315512494547
2023-01-18T02:27:21.800Z,10.572583111052882
2023-01-18T02:31:18.450Z,10.53276181279216
2023-01-18T02:34:25.071Z,10.53982688056285
2023-01-18T02:37:24.511Z,10.534688649402323
2023-01-18T02:41:22.838Z,10.503859268550968
2023-01-18T02:51:16.410Z,10.46082660863176
2023-01-18T02:54:24.824Z,10.51863167890151
2023-01-18T02:57:17.687Z,10.570656273637814
2023-01-18T03:01:21.649Z,10.574509948508876
2023-01-18T03:04:20.863Z,10.609193029715334
2023-01-18T03:07:20.588Z,10.569371715383841
2023-01-18T03:11:25.397Z,10.534688649402323
2023-01-18T03:14:27.222Z,10.50000559668124
2023-01-18T03:17:21.120Z,10.524412187954386
2023-01-18T03:21:16.249Z,10.612404426794091
2023-01-18T03:24:18.821Z,10.649014361527316
2023-01-18T03:41:18.353Z,10.505143825877258
2023-01-18T03:44:20.806Z,10.54046915947838
2023-01-18T03:47:16.761Z,10.49872103942771
2023-01-18T03:51:23.876Z,10.53982688056285
2023-01-18T03:54:21.357Z,10.485233189363862
2023-01-18T03:57:26.970Z,10.564233482549843
2023-01-18T04:01:16.662Z,10.599558839161181
2023-01-18T04:04:16.878Z,10.616258103438668
2023-01-18T04:07:17.288Z,10.606623912134182
2023-01-18T04:11:16.469Z,10.602770235898879
2023-01-18T04:14:16.874Z,10.537900043843546
2023-01-18T04:17:17.754Z,10.623323177712246
2023-01-18T04:21:16.061Z,10.537900043843546
2023-01-18T04:24:17.368Z,10.618184941822346
2023-01-18T04:27:16.478Z,10.63359965036516
2023-01-18T04:31:16.758Z,10.533404091657667
2023-01-18T04:34:16.969Z,10.629745972983892
2023-01-18T04:37:16.949Z,10.603412515260061
2023-01-18T04:41:16.148Z,10.50129015395296
2023-01-18T04:44:16.900Z,10.503216989894645
2023-01-18T04:47:16.619Z,10.531477255074787
2023-01-18T04:51:16.030Z,10.447981042462924
2023-01-18T04:54:17.258Z,10.487160024964487
2023-01-18T04:57:16.470Z,10.550745622745307
2023-01-18T05:01:17.515Z,10.55524157579066
2023-01-18T05:04:17.100Z,10.570656273637814
2023-01-18T05:07:17.554Z,10.614973544538952
2023-01-18T05:11:18.658Z,10.510282055364314
2023-01-18T05:14:17.122Z,10.597632001173134
2023-01-18T05:17:17.076Z,10.566160319828487
2023-01-18T05:21:16.487Z,10.561664366241985
2023-01-18T05:24:17.037Z,10.561022087176388
2023-01-18T05:27:19.005Z,10.523769909152543
2023-01-18T05:31:17.692Z,10.563591203466057
2023-01-18T05:34:17.671Z,10.675347832488843
2023-01-18T05:37:18.516Z,10.611119867948947
2023-01-18T05:41:19.818Z,10.622038618712486
2023-01-18T05:44:18.291Z,10.623965457218947
2023-01-18T05:47:19.932Z,10.556526133844546
2023-01-18T05:51:16.665Z,10.667640474342988
2023-01-18T05:54:17.178Z,10.545607390966325
2023-01-18T05:57:17.006Z,10.688835710819784
2023-01-18T06:01:15.995Z,10.60405479462579
2023-01-18T06:04:16.469Z,10.684982031092023
2023-01-18T06:07:17.066Z,10.611762147369245
2023-01-18T06:11:16.778Z,10.570656273637814
2023-01-18T06:14:16.926Z,10.5879978118468
2023-01-18T06:17:17.546Z,10.568087157148057
2023-01-18T06:21:16.316Z,10.551387901738144
2023-01-18T06:24:16.336Z,10.492940532011925
2023-01-18T06:27:16.488Z,10.523127630355248
2023-01-18T06:31:16.410Z,10.487802303507124
2023-01-18T06:34:16.184Z,10.505143825877258
2023-01-18T06:37:16.372Z,10.474956733518411
2023-01-18T06:41:16.381Z,10.470460784452097
2023-01-18T06:44:16.600Z,10.415224856965597
2023-01-18T06:47:20.510Z,10.407517520920464
2023-01-18T06:51:16.308Z,10.344574301062767
2023-01-18T06:54:17.041Z,10.341362913465492
2023-01-18T06:57:16.779Z,10.300257162261186
2023-01-18T07:01:16.658Z,10.314387262136734
2023-01-18T07:04:16.848Z,10.248874999449253
2023-01-18T07:07:16.863Z,10.224468482309021
2023-01-18T07:11:17.309Z,10.267501030105723
2023-01-18T07:14:16.631Z,10.333013306244629
2023-01-18T07:17:16.569Z,10.354208464536715
2023-01-18T07:21:17.631Z,10.34778568877373
2023-01-18T07:24:17.157Z,10.35163935417695
2023-01-18T07:27:17.032Z,10.276492908343153
2023-01-18T07:31:18.105Z,10.336224693546319
2023-01-18T07:34:16.687Z,10.346501133675702
2023-01-18T07:37:16.807Z,10.374761350034168
2023-01-18T07:41:16.578Z,10.404306131094927
2023-01-18T07:44:16.484Z,10.401094741383076
2023-01-18T07:47:16.359Z,10.43642003446621
2023-01-18T07:51:16.648Z,10.491013696288519
2023-01-18T07:54:19.273Z,10.455046103630684
2023-01-18T07:57:16.843Z,10.49486736777626
2023-01-18T08:01:18.721Z,10.49486736777626
2023-01-18T08:04:16.988Z,10.534688649402323
2023-01-18T08:07:17.892Z,10.561664366241985
2023-01-18T08:11:16.331Z,10.612404426794091
2023-01-18T08:14:16.665Z,10.64194928525285
2023-01-18T08:17:16.727Z,10.656721718090647
2023-01-18T08:21:16.981Z,10.651583480309
2023-01-18T08:24:17.272Z,10.67020959365218
2023-01-18T08:27:17.385Z,10.676632392243482
2023-01-18T08:31:18.659Z,10.690762550745058
2023-01-18T08:34:16.939Z,10.695258510729854
2023-01-18T08:37:17.462Z,10.687551150892341
2023-01-18T08:41:16.081Z,10.474314455066724
2023-01-18T08:44:16.244Z,10.526339024387198
2023-01-18T08:47:16.411Z,10.386964628001532
2023-01-18T08:51:18.266Z,10.358062130212783
2023-01-18T08:54:16.334Z,10.175013191395646
2023-01-18T08:57:17.355Z,10.14996441797266
2023-01-18T09:01:16.948Z,10.079314068661551
2023-01-18T09:04:17.144Z,10.08252544698198
2023-01-18T09:07:17.197Z,10.06261490322795
2023-01-18T09:11:17.031Z,10.058118974597983
2023-01-18T09:14:16.376Z,10.072249036756784
2023-01-18T09:17:18.298Z,10.102435995106134
2023-01-18T09:21:17.539Z,10.072249036756784
2023-01-18T09:24:16.430Z,10.05554987262376
2023-01-18T09:27:17.120Z,10.039492986933329
2023-01-18T09:31:16.590Z,10.042704363844042
2023-01-18T09:34:19.955Z,9.977834572293796
2023-01-18T09:37:16.586Z,9.973338647865694
2023-01-18T09:41:27.638Z,9.977834572293796
2023-01-18T09:44:24.013Z,9.866721076725025
2023-01-18T09:47:19.160Z,9.832680553294267
2023-01-18T09:51:24.880Z,9.7915750325923
2023-01-18T09:54:30.566Z,9.803135958407074
2023-01-18T09:57:30.764Z,9.783225475975723
2023-01-18T10:01:21.751Z,9.73890861141408
2023-01-18T10:04:23.158Z,9.675323582685905
2023-01-18T10:07:19.132Z,9.725420874323117
2023-01-18T10:11:22.437Z,9.70551040894934
2023-01-18T10:14:23.373Z,9.668258582245107
2023-01-18T10:17:21.532Z,9.657339946282537
2023-01-18T10:21:23.927Z,9.607884964556433
2023-01-18T10:24:28.175Z,9.561641369672724
2023-01-18T10:27:33.332Z,9.582194075599546
2023-01-18T10:31:30.256Z,9.584763164167816
2023-01-18T10:34:20.368Z,9.625868591155449
2023-01-18T10:37:26.496Z,9.56356818565555
2023-01-18T10:41:20.275Z,9.616234505034026
2023-01-18T10:44:16.159Z,9.697803133203706
2023-01-18T10:47:17.812Z,9.769737732295471
2023-01-18T10:51:28.619Z,9.926452592108399
2023-01-18T10:54:22.729Z,10.006094673801272
2023-01-18T10:57:22.587Z,10.065826280957207
2023-01-18T11:01:20.321Z,10.130053859416602
2023-01-18T11:04:21.898Z,10.247590445751849
2023-01-18T11:07:24.035Z,10.244379061587916
2023-01-18T11:11:27.241Z,10.30411082564533
2023-01-18T11:14:24.556Z,10.343289746010214
2023-01-18T11:17:18.360Z,10.349070243889946
2023-01-18T11:21:16.503Z,10.429354974749094
2023-01-18T11:24:21.541Z,10.451834712122581
2023-01-18T11:27:23.210Z,10.467249392398298
2023-01-18T11:31:22.191Z,10.503216989894645
2023-01-18T11:34:24.219Z,10.544322833067053
2023-01-18T11:37:29.516Z,10.5321195339312
2023-01-18T11:41:19.661Z,10.072891312361753
2023-01-18T11:44:21.829Z,10.196850589253973
2023-01-18T11:47:22.801Z,10.203273354330396
2023-01-18T11:51:23.321Z,10.105005098408219
2023-01-18T11:54:24.092Z,10.080598619976081
2023-01-18T11:57:16.680Z,10.069679934382384
2023-01-18T12:01:50.826Z,10.0523384952583
2023-01-18T12:04:30.823Z,10.043346639239825
2023-01-18T12:07:30.260Z,10.00416784841882
2023-01-18T12:11:28.517Z,9.973980922770352
2023-01-18T12:14:33.253Z,9.969484998533243
2023-01-18T12:17:33.945Z,9.916176199563779
2023-01-18T12:21:26.563Z,9.942509457789948
2023-01-18T12:24:32.346Z,9.934159887280838
2023-01-18T12:27:26.350Z,9.952143578563119
2023-01-18T12:31:28.421Z,9.938013535112622
2023-01-18T12:34:22.214Z,9.960493150727507
2023-01-18T12:37:30.456Z,9.911038003728027
2023-01-18T12:42:34.774Z,9.93094851421274
2023-01-18T12:44:32.362Z,9.922598944767742
2023-01-18T12:47:27.516Z,9.855160142806653
2023-01-18T12:51:19.546Z,9.954712677608768
2023-01-18T12:54:25.837Z,9.929663965017335
2023-01-18T12:57:19.583Z,9.887273851773443
2023-01-18T13:01:21.393Z,9.92773714125833
2023-01-18T13:04:23.264Z,9.93094851421274
2023-01-18T13:07:21.587Z,9.78772139098146
2023-01-18T13:11:21.480Z,9.866078802579796
2023-01-18T13:14:23.237Z,9.885989303196492
2023-01-18T13:17:24.665Z,9.896265692321412
2023-01-18T13:21:26.531Z,9.88085110907059
2023-01-18T13:24:28.755Z,9.871216995868963
2023-01-18T13:27:17.442Z,9.86415198017139
2023-01-18T13:31:30.111Z,9.854517868743278
2023-01-18T13:34:26.327Z,9.835891922883548
2023-01-18T13:37:40.370Z,9.817265980848243
2023-01-18T13:41:24.027Z,9.847452854346283
2023-01-18T13:44:27.744Z,9.81469688569523
2023-01-18T13:47:55.881Z,9.834607375034192
2023-01-18T13:51:53.248Z,9.819835076074014
2023-01-18T13:54:56.936Z,9.796713221661411
2023-01-18T13:57:17.479Z,9.77294909965649
2023-01-18T14:01:21.607Z,9.758819084118386
2023-01-18T14:04:27.347Z,9.773591373142335
2023-01-18T14:07:21.670Z,9.763314997914495
2023-01-18T14:11:25.229Z,9.726705420626331
2023-01-18T14:14:27.934Z,9.756892263988266
2023-01-18T14:17:16.747Z,9.732485879215892
2023-01-18T14:21:24.188Z,9.739550884658911
2023-01-18T14:24:39.599Z,9.765241818181039
2023-01-18T14:27:20.903Z,9.75560771725759
2023-01-18T14:31:20.151Z,9.715144504552246
2023-01-18T14:34:35.808Z,9.723494054902403
2023-01-18T14:37:24.766Z,9.732485879215892
2023-01-18T14:41:17.721Z,9.72285178177126
2023-01-18T14:44:20.439Z,9.735697245258143
2023-01-18T14:47:24.424Z,9.718355869980588
2023-01-18T14:51:21.179Z,9.723494054902403
2023-01-18T14:54:18.369Z,9.696518587309765
2023-01-18T14:57:17.698Z,9.689453585218235
2023-01-18T15:01:26.975Z,9.72285178177126
2023-01-18T15:04:19.719Z,9.732485879215892
2023-01-18T15:07:22.931Z,9.725420874323117
2023-01-18T15:11:16.597Z,9.727989966947735
2023-01-18T15:14:22.195Z,9.722209508644664
2023-01-18T15:17:24.572Z,9.749827257194648
2023-01-18T15:21:21.488Z,9.724778601178333
2023-01-18T15:24:18.972Z,9.70101449801814
2023-01-18T15:27:18.976Z,9.695876314369617
2023-01-18T15:31:16.777Z,9.717071323795608
2023-01-18T15:34:21.843Z,9.624584046280143
2023-01-18T15:37:23.002Z,9.648348129417808
2023-01-18T15:41:17.466Z,9.641283131077945
2023-01-18T15:44:41.366Z,9.640640858528878
2023-01-18T15:47:33.163Z,9.657982218949837
2023-01-18T15:51:16.425Z,9.663120400451954
2023-01-18T15:54:18.894Z,9.724136328038094
2023-01-18T15:57:19.570Z,9.679177219521899
2023-01-18T16:01:19.643Z,9.668258582245107
2023-01-18T16:04:20.825Z,9.670827673250823
2023-01-18T16:07:37.834Z,9.696518587309765
2023-01-18T16:11:28.379Z,9.712575412291425
2023-01-18T16:14:22.628Z,9.70936404706772
2023-01-18T16:17:20.579Z,9.71193313923759
2023-01-18T16:21:28.880Z,9.682388583676948
2023-01-18T16:24:26.098Z,9.686242220813075
2023-01-18T16:27:21.608Z,9.666974036769535
2023-01-18T16:31:21.046Z,9.666331764038569
2023-01-18T16:34:21.772Z,9.638714040908962
2023-01-18T16:37:18.767Z,9.648348129417808
2023-01-18T16:41:17.461Z,9.64513676646784
2023-01-18T16:44:28.349Z,9.63614495081274
2023-01-18T16:47:48.702Z,9.603389058463744
2023-01-18T16:51:24.596Z,9.589901341522637
2023-01-18T16:54:19.113Z,9.572559994116546
2023-01-18T16:57:24.130Z,9.551365018455545
2023-01-18T17:01:21.126Z,9.50062555138511
2023-01-18T17:04:24.401Z,9.481357406768165
2023-01-18T17:07:29.826Z,9.47621923556153
2023-01-18T17:11:17.963Z,9.455666553645369
2023-01-18T17:14:17.058Z,9.464016080112197
2023-01-18T17:17:16.778Z,9.449886112695458
2023-01-18T17:21:18.672Z,9.404284869227649
2023-01-18T17:24:19.996Z,9.404284869227649
2023-01-18T17:27:17.417Z,9.377309496558974
2023-01-18T17:31:22.157Z,9.34712277951221
2023-01-18T17:34:33.096Z,9.280326675370816
2023-01-18T17:37:26.381Z,9.2539936093709
2023-01-18T17:41:27.673Z,9.256562688644134
2023-01-18T17:44:33.011Z,9.264912196784644
2023-01-18T17:47:31.205Z,9.26619673656678
2023-01-18T17:51:26.708Z,9.24692864174467
2023-01-18T17:54:21.165Z,9.216741968085353
2023-01-18T17:57:22.696Z,9.216099698542166
2023-01-18T18:01:18.121Z,9.239863674668687
2023-01-18T18:04:17.611Z,9.237294595868388
2023-01-18T18:07:18.065Z,9.221880124594554
2023-01-18T18:11:22.565Z,9.192335728641137
2023-01-18T18:14:19.043Z,9.204538847542427
2023-01-18T18:17:23.615Z,9.240505944380129
2023-01-18T18:21:18.781Z,9.275188515551054
2023-01-18T18:24:21.025Z,9.332350559937277
2023-01-18T18:27:26.653Z,9.35226094340651
2023-01-18T18:31:25.875Z,9.341342345479006
2023-01-18T18:34:18.401Z,9.369602248698447
2023-01-18T18:37:22.773Z,9.366390895616496
2023-01-18T18:41:25.744Z,9.393366265038276
2023-01-18T18:44:17.336Z,9.407496223651105
2023-01-18T18:47:17.452Z,9.40685395275732
2023-01-18T18:51:17.973Z,9.32721239717075
2023-01-18T18:54:20.312Z,9.40878076545232
2023-01-18T18:57:18.258Z,9.261058577547374
2023-01-18T19:01:27.007Z,9.338773263804706
2023-01-18T19:04:25.508Z,9.38758582805831
2023-01-18T19:07:24.723Z,9.386943557305495
2023-01-18T19:11:17.242Z,9.360610460355474
2023-01-18T19:14:17.190Z,9.399146702386588
2023-01-18T19:17:28.913Z,9.40107351491788
2023-01-18T19:21:16.631Z,9.394650806639401
2023-01-18T19:24:17.039Z,9.422268455463291
2023-01-18T19:27:17.039Z,9.418414829541234
2023-01-18T19:31:16.180Z,9.425479810523393
2023-01-18T19:34:16.920Z,9.474292421434075
2023-01-18T19:37:16.607Z,9.424837539502278
2023-01-18T19:41:18.858Z,9.499983279831941
2023-01-18T19:44:17.370Z,9.516682341692285
2023-01-18T19:47:17.401Z,9.526316417240832
2023-01-18T19:51:22.305Z,9.525674145505764
2023-01-18T19:54:16.879Z,9.499341008283318
2023-01-18T19:57:16.978Z,9.510901896854284
2023-01-18T20:01:26.785Z,9.475576964181164
2023-01-18T20:04:17.090Z,9.431260249918068
2023-01-18T20:07:17.031Z,9.413918932839078
2023-01-18T20:11:17.092Z,9.423552997473688
2023-01-18T20:14:18.632Z,9.41134984910932
2023-01-18T20:17:17.294Z,9.371529060602189
2023-01-18T20:21:16.992Z,9.367675436835635
2023-01-18T20:24:17.348Z,9.41134984910932
2023-01-18T20:27:17.437Z,9.397219889896224
2023-01-18T20:31:25.079Z,9.35932591923638
2023-01-18T20:34:17.403Z,9.329781478517635
2023-01-18T20:37:19.205Z,9.320789694121867
